sensor_id;sensor_type;location;lat;lon;timestamp;pressure;altitude;pressure_sealevel;temperature;humidity
31331;BME280;34067;39.548;-76.088;2022-09-02T00:01:27;101440.05;;;28.85;42.42
31331;BME280;34067;39.548;-76.088;2022-09-02T00:03:57;101442.93;;;29.35;40.27
31331;BME280;34067;39.548;-76.088;2022-09-02T00:06:27;101450.46;;;29.09;39.16
31331;BME280;34067;39.548;-76.088;2022-09-02T00:08:56;101455.14;;;28.82;42.05
31331;BME280;34067;39.548;-76.088;2022-09-02T00:11:26;101464.09;;;29.05;44.93
31331;BME280;34067;39.548;-76.088;2022-09-02T00:13:57;101465.65;;;28.40;40.52
31331;BME280;34067;39.548;-76.088;2022-09-02T00:16:27;101469.14;;;28.58;40.47
31331;BME280;34067;39.548;-76.088;2022-09-02T00:18:54;101476.21;;;28.84;39.73
31331;BME280;34067;39.548;-76.088;2022-09-02T00:21:23;101478.44;;;28.68;39.60
31331;BME280;34067;39.548;-76.088;2022-09-02T00:23:51;101486.66;;;28.69;38.73
31331;BME280;34067;39.548;-76.088;2022-09-02T00:26:20;101493.13;;;29.18;39.18
31331;BME280;34067;39.548;-76.088;2022-09-02T00:28:48;101501.40;;;28.42;39.70
31331;BME280;34067;39.548;-76.088;2022-09-02T00:31:17;101506.62;;;27.65;41.20
31331;BME280;34067;39.548;-76.088;2022-09-02T00:33:46;101506.02;;;28.27;39.95
31331;BME280;34067;39.548;-76.088;2022-09-02T00:36:13;101512.09;;;28.26;40.87
31331;BME280;34067;39.548;-76.088;2022-09-02T00:38:41;101513.42;;;27.93;41.15
31331;BME280;34067;39.548;-76.088;2022-09-02T00:41:10;101516.91;;;27.92;41.31
31331;BME280;34067;39.548;-76.088;2022-09-02T00:43:42;101523.61;;;27.86;43.02
31331;BME280;34067;39.548;-76.088;2022-09-02T00:46:14;101526.45;;;27.59;44.25
31331;BME280;34067;39.548;-76.088;2022-09-02T00:48:45;101530.89;;;27.26;45.53
31331;BME280;34067;39.548;-76.088;2022-09-02T00:51:15;101532.86;;;26.70;46.71
31331;BME280;34067;39.548;-76.088;2022-09-02T00:53:44;101540.04;;;25.62;49.51
31331;BME280;34067;39.548;-76.088;2022-09-02T00:56:16;101542.38;;;25.71;51.48
31331;BME280;34067;39.548;-76.088;2022-09-02T00:58:46;101544.60;;;26.14;52.88
31331;BME280;34067;39.548;-76.088;2022-09-02T01:01:14;101550.17;;;25.93;55.29
31331;BME280;34067;39.548;-76.088;2022-09-02T01:03:42;101551.32;;;26.26;55.12
31331;BME280;34067;39.548;-76.088;2022-09-02T01:06:11;101553.29;;;25.07;58.31
31331;BME280;34067;39.548;-76.088;2022-09-02T01:08:41;101552.70;;;25.62;58.30
31331;BME280;34067;39.548;-76.088;2022-09-02T01:11:10;101552.77;;;24.70;60.86
31331;BME280;34067;39.548;-76.088;2022-09-02T01:13:40;101554.20;;;25.81;60.57
31331;BME280;34067;39.548;-76.088;2022-09-02T01:16:14;101556.98;;;25.38;62.75
31331;BME280;34067;39.548;-76.088;2022-09-02T01:18:48;101559.61;;;25.83;62.54
31331;BME280;34067;39.548;-76.088;2022-09-02T01:21:16;101565.43;;;25.04;62.99
31331;BME280;34067;39.548;-76.088;2022-09-02T01:23:45;101567.54;;;25.18;63.72
31331;BME280;34067;39.548;-76.088;2022-09-02T01:26:13;101567.83;;;24.83;66.59
31331;BME280;34067;39.548;-76.088;2022-09-02T01:28:41;101569.21;;;24.36;66.54
31331;BME280;34067;39.548;-76.088;2022-09-02T01:31:10;101575.85;;;24.82;68.21
31331;BME280;34067;39.548;-76.088;2022-09-02T01:33:38;101578.84;;;23.78;71.53
31331;BME280;34067;39.548;-76.088;2022-09-02T01:36:06;101584.77;;;23.89;74.67
31331;BME280;34067;39.548;-76.088;2022-09-02T01:38:34;101585.55;;;23.58;74.40
31331;BME280;34067;39.548;-76.088;2022-09-02T01:41:02;101587.79;;;23.66;76.45
31331;BME280;34067;39.548;-76.088;2022-09-02T01:43:30;101594.98;;;24.14;75.18
31331;BME280;34067;39.548;-76.088;2022-09-02T01:45:59;101591.53;;;22.92;82.02
31331;BME280;34067;39.548;-76.088;2022-09-02T01:48:28;101590.79;;;23.76;81.22
31331;BME280;34067;39.548;-76.088;2022-09-02T01:51:00;101590.90;;;23.61;83.15
31331;BME280;34067;39.548;-76.088;2022-09-02T01:53:30;101593.21;;;22.99;83.89
31331;BME280;34067;39.548;-76.088;2022-09-02T01:55:58;101591.84;;;23.98;79.42
31331;BME280;34067;39.548;-76.088;2022-09-02T01:58:26;101591.79;;;23.01;81.38
31331;BME280;34067;39.548;-76.088;2022-09-02T02:00:54;101594.41;;;22.87;84.68
31331;BME280;34067;39.548;-76.088;2022-09-02T02:03:21;101597.65;;;22.47;85.80
31331;BME280;34067;39.548;-76.088;2022-09-02T02:05:52;101598.39;;;23.26;89.85
31331;BME280;34067;39.548;-76.088;2022-09-02T02:08:21;101602.61;;;22.46;90.75
31331;BME280;34067;39.548;-76.088;2022-09-02T02:10:49;101599.34;;;23.61;88.55
31331;BME280;34067;39.548;-76.088;2022-09-02T02:13:17;101603.65;;;21.86;91.80
31331;BME280;34067;39.548;-76.088;2022-09-02T02:15:45;101604.28;;;22.77;89.50
31331;BME280;34067;39.548;-76.088;2022-09-02T02:18:13;101605.56;;;22.98;83.37
31331;BME280;34067;39.548;-76.088;2022-09-02T02:20:41;101609.23;;;23.44;79.66
31331;BME280;34067;39.548;-76.088;2022-09-02T02:23:09;101610.35;;;24.20;78.79
31331;BME280;34067;39.548;-76.088;2022-09-02T02:25:38;101611.91;;;24.23;80.86
31331;BME280;34067;39.548;-76.088;2022-09-02T02:28:05;101610.16;;;23.57;77.71
31331;BME280;34067;39.548;-76.088;2022-09-02T02:30:33;101613.61;;;23.75;76.32
31331;BME280;34067;39.548;-76.088;2022-09-02T02:33:01;101615.78;;;23.83;79.45
31331;BME280;34067;39.548;-76.088;2022-09-02T02:35:29;101622.43;;;24.20;75.83
31331;BME280;34067;39.548;-76.088;2022-09-02T02:37:57;101629.85;;;23.02;84.95
31331;BME280;34067;39.548;-76.088;2022-09-02T02:40:25;101626.92;;;23.71;83.48
31331;BME280;34067;39.548;-76.088;2022-09-02T02:42:54;101632.23;;;23.27;83.22
31331;BME280;34067;39.548;-76.088;2022-09-02T02:45:23;101634.96;;;21.93;86.64
31331;BME280;34067;39.548;-76.088;2022-09-02T02:47:51;101635.35;;;22.67;86.26
31331;BME280;34067;39.548;-76.088;2022-09-02T02:50:21;101642.78;;;23.03;85.26
31331;BME280;34067;39.548;-76.088;2022-09-02T02:52:51;101643.51;;;22.24;84.65
31331;BME280;34067;39.548;-76.088;2022-09-02T02:55:19;101649.13;;;21.93;87.16
31331;BME280;34067;39.548;-76.088;2022-09-02T02:57:47;101649.56;;;22.17;85.27
31331;BME280;34067;39.548;-76.088;2022-09-02T03:00:18;101646.98;;;21.78;90.54
31331;BME280;34067;39.548;-76.088;2022-09-02T03:02:47;101651.89;;;21.93;88.12
31331;BME280;34067;39.548;-76.088;2022-09-02T03:05:15;101657.18;;;22.47;87.90
31331;BME280;34067;39.548;-76.088;2022-09-02T03:07:43;101660.06;;;21.53;89.10
31331;BME280;34067;39.548;-76.088;2022-09-02T03:10:12;101668.68;;;21.47;94.27
31331;BME280;34067;39.548;-76.088;2022-09-02T03:12:40;101666.04;;;21.11;91.03
31331;BME280;34067;39.548;-76.088;2022-09-02T03:15:09;101663.16;;;21.81;89.62
31331;BME280;34067;39.548;-76.088;2022-09-02T03:17:37;101662.51;;;21.29;98.27
31331;BME280;34067;39.548;-76.088;2022-09-02T03:20:06;101664.65;;;21.14;93.22
31331;BME280;34067;39.548;-76.088;2022-09-02T03:22:35;101665.35;;;20.77;94.27
31331;BME280;34067;39.548;-76.088;2022-09-02T03:25:04;101659.09;;;21.87;97.95
31331;BME280;34067;39.548;-76.088;2022-09-02T03:27:32;101660.68;;;21.35;100.00
31331;BME280;34067;39.548;-76.088;2022-09-02T03:30:01;101660.86;;;21.31;100.00
31331;BME280;34067;39.548;-76.088;2022-09-02T03:32:28;101661.83;;;21.31;100.00
31331;BME280;34067;39.548;-76.088;2022-09-02T03:34:56;101659.72;;;20.95;100.00
31331;BME280;34067;39.548;-76.088;2022-09-02T03:37:24;101668.13;;;21.23;100.00
31331;BME280;34067;39.548;-76.088;2022-09-02T03:39:52;101669.38;;;20.78;100.00
31331;BME280;34067;39.548;-76.088;2022-09-02T03:42:20;101671.57;;;21.23;100.00
31331;BME280;34067;39.548;-76.088;2022-09-02T03:44:47;101668.57;;;21.47;100.00
31331;BME280;34067;39.548;-76.088;2022-09-02T03:47:15;101670.03;;;21.55;100.00
31331;BME280;34067;39.548;-76.088;2022-09-02T03:49:43;101677.95;;;20.86;100.00
31331;BME280;34067;39.548;-76.088;2022-09-02T03:52:11;101679.92;;;20.87;100.00
31331;BME280;34067;39.548;-76.088;2022-09-02T03:54:39;101688.20;;;20.09;100.00
31331;BME280;34067;39.548;-76.088;2022-09-02T03:57:08;101687.28;;;21.01;100.00
31331;BME280;34067;39.548;-76.088;2022-09-02T03:59:36;101686.74;;;19.99;100.00
31331;BME280;34067;39.548;-76.088;2022-09-02T04:02:04;101688.62;;;20.69;100.00
31331;BME280;34067;39.548;-76.088;2022-09-02T04:04:32;101690.42;;;21.09;100.00
31331;BME280;34067;39.548;-76.088;2022-09-02T04:07:00;101690.40;;;20.25;100.00
31331;BME280;34067;39.548;-76.088;2022-09-02T04:09:28;101696.48;;;20.55;100.00
31331;BME280;34067;39.548;-76.088;2022-09-02T04:11:56;101689.56;;;20.80;100.00
31331;BME280;34067;39.548;-76.088;2022-09-02T04:14:24;101695.31;;;20.74;100.00
31331;BME280;34067;39.548;-76.088;2022-09-02T04:16:52;101697.27;;;20.87;100.00
31331;BME280;34067;39.548;-76.088;2022-09-02T04:19:19;101695.52;;;20.70;100.00
31331;BME280;34067;39.548;-76.088;2022-09-02T04:21:47;101702.64;;;20.50;100.00
31331;BME280;34067;39.548;-76.088;2022-09-02T04:24:15;101703.58;;;20.33;100.00
31331;BME280;34067;39.548;-76.088;2022-09-02T04:26:43;101710.18;;;20.44;100.00
31331;BME280;34067;39.548;-76.088;2022-09-02T04:29:11;101714.64;;;19.58;99.83
31331;BME280;34067;39.548;-76.088;2022-09-02T04:31:39;101715.26;;;21.42;100.00
31331;BME280;34067;39.548;-76.088;2022-09-02T04:34:07;101721.87;;;20.17;100.00
31331;BME280;34067;39.548;-76.088;2022-09-02T04:36:35;101723.62;;;20.19;100.00
31331;BME280;34067;39.548;-76.088;2022-09-02T04:39:03;101728.62;;;19.73;100.00
31331;BME280;34067;39.548;-76.088;2022-09-02T04:41:31;101732.37;;;19.44;99.54
31331;BME280;34067;39.548;-76.088;2022-09-02T04:43:59;101735.29;;;19.95;100.00
31331;BME280;34067;39.548;-76.088;2022-09-02T04:46:28;101736.85;;;19.85;100.00
31331;BME280;34067;39.548;-76.088;2022-09-02T04:48:56;101739.62;;;20.88;96.86
31331;BME280;34067;39.548;-76.088;2022-09-02T04:51:25;101739.74;;;20.21;100.00
31331;BME280;34067;39.548;-76.088;2022-09-02T04:53:54;101742.39;;;20.27;95.75
31331;BME280;34067;39.548;-76.088;2022-09-02T04:56:24;101748.66;;;20.90;97.17
31331;BME280;34067;39.548;-76.088;2022-09-02T04:58:53;101755.19;;;20.03;100.00
31331;BME280;34067;39.548;-76.088;2022-09-02T05:03:09;101755.44;;;21.23;100.00
31331;BME280;34067;39.548;-76.088;2022-09-02T05:05:37;101755.33;;;19.24;100.00
31331;BME280;34067;39.548;-76.088;2022-09-02T05:08:05;101763.06;;;19.88;100.00
31331;BME280;34067;39.548;-76.088;2022-09-02T05:10:33;101762.42;;;20.38;100.00
31331;BME280;34067;39.548;-76.088;2022-09-02T05:13:01;101770.20;;;19.83;100.00
31331;BME280;34067;39.548;-76.088;2022-09-02T05:15:29;101769.86;;;20.44;100.00
31331;BME280;34067;39.548;-76.088;2022-09-02T05:17:57;101776.36;;;19.86;100.00
31331;BME280;34067;39.548;-76.088;2022-09-02T05:20:24;101778.67;;;20.65;100.00
31331;BME280;34067;39.548;-76.088;2022-09-02T05:22:52;101779.44;;;20.98;95.70
31331;BME280;34067;39.548;-76.088;2022-09-02T05:25:20;101780.50;;;20.74;76.78
31331;BME280;34067;39.548;-76.088;2022-09-02T05:27:48;101782.19;;;21.08;74.43
31331;BME280;34067;39.548;-76.088;2022-09-02T05:30:16;101784.10;;;21.60;72.79
31331;BME280;34067;39.548;-76.088;2022-09-02T05:32:44;101780.65;;;22.02;70.28
31331;BME280;34067;39.548;-76.088;2022-09-02T05:35:12;101790.75;;;21.56;74.64
31331;BME280;34067;39.548;-76.088;2022-09-02T05:37:39;101792.28;;;20.99;70.25
31331;BME280;34067;39.548;-76.088;2022-09-02T05:40:09;101795.64;;;21.20;65.30
31331;BME280;34067;39.548;-76.088;2022-09-02T05:42:37;101794.31;;;20.88;65.18
31331;BME280;34067;39.548;-76.088;2022-09-02T05:45:06;101789.19;;;22.25;64.34
31331;BME280;34067;39.548;-76.088;2022-09-02T05:47:35;101793.74;;;21.08;68.83
31331;BME280;34067;39.548;-76.088;2022-09-02T05:50:04;101792.14;;;21.81;64.42
31331;BME280;34067;39.548;-76.088;2022-09-02T05:52:32;101795.15;;;21.19;62.88
31331;BME280;34067;39.548;-76.088;2022-09-02T05:55:00;101793.02;;;21.73;62.91
31331;BME280;34067;39.548;-76.088;2022-09-02T05:57:29;101790.03;;;21.91;62.81
31331;BME280;34067;39.548;-76.088;2022-09-02T05:59:56;101796.73;;;21.00;59.32
31331;BME280;34067;39.548;-76.088;2022-09-02T06:02:24;101796.39;;;22.00;58.89
31331;BME280;34067;39.548;-76.088;2022-09-02T06:04:54;101802.58;;;22.03;60.53
31331;BME280;34067;39.548;-76.088;2022-09-02T06:07:24;101812.51;;;21.53;63.19
31331;BME280;34067;39.548;-76.088;2022-09-02T06:09:52;101815.83;;;20.89;56.99
31331;BME280;34067;39.548;-76.088;2022-09-02T06:12:20;101813.46;;;21.76;59.78
31331;BME280;34067;39.548;-76.088;2022-09-02T06:14:48;101815.20;;;21.26;54.49
31331;BME280;34067;39.548;-76.088;2022-09-02T06:17:16;101815.57;;;20.79;53.33
31331;BME280;34067;39.548;-76.088;2022-09-02T06:19:44;101816.86;;;21.26;54.46
31331;BME280;34067;39.548;-76.088;2022-09-02T06:22:12;101813.22;;;21.19;49.62
31331;BME280;34067;39.548;-76.088;2022-09-02T06:24:39;101812.24;;;21.24;49.94
31331;BME280;34067;39.548;-76.088;2022-09-02T06:27:07;101816.58;;;21.65;48.29
31331;BME280;34067;39.548;-76.088;2022-09-02T06:29:35;101810.63;;;22.52;50.95
31331;BME280;34067;39.548;-76.088;2022-09-02T06:32:03;101814.25;;;21.25;53.65
31331;BME280;34067;39.548;-76.088;2022-09-02T06:34:32;101814.39;;;22.14;52.13
31331;BME280;34067;39.548;-76.088;2022-09-02T06:37:00;101817.19;;;21.69;51.35
31331;BME280;34067;39.548;-76.088;2022-09-02T06:39:28;101823.17;;;21.58;51.73
31331;BME280;34067;39.548;-76.088;2022-09-02T06:41:55;101824.48;;;21.87;49.86
31331;BME280;34067;39.548;-76.088;2022-09-02T06:44:23;101823.66;;;20.56;50.84
31331;BME280;34067;39.548;-76.088;2022-09-02T06:46:54;101821.59;;;21.07;51.18
31331;BME280;34067;39.548;-76.088;2022-09-02T06:49:25;101823.83;;;20.65;48.73
31331;BME280;34067;39.548;-76.088;2022-09-02T06:51:54;101823.98;;;21.10;55.12
31331;BME280;34067;39.548;-76.088;2022-09-02T06:54:23;101821.96;;;21.27;52.97
31331;BME280;34067;39.548;-76.088;2022-09-02T06:56:52;101827.91;;;20.60;51.00
31331;BME280;34067;39.548;-76.088;2022-09-02T06:59:20;101830.35;;;20.34;51.45
31331;BME280;34067;39.548;-76.088;2022-09-02T07:01:48;101840.90;;;20.71;53.54
31331;BME280;34067;39.548;-76.088;2022-09-02T07:04:16;101843.45;;;20.57;51.96
31331;BME280;34067;39.548;-76.088;2022-09-02T07:06:47;101846.53;;;20.38;50.59
31331;BME280;34067;39.548;-76.088;2022-09-02T07:09:17;101852.82;;;20.59;53.06
31331;BME280;34067;39.548;-76.088;2022-09-02T07:11:45;101859.02;;;20.37;53.48
31331;BME280;34067;39.548;-76.088;2022-09-02T07:14:14;101865.26;;;20.13;51.61
31331;BME280;34067;39.548;-76.088;2022-09-02T07:16:45;101864.34;;;20.83;50.51
31331;BME280;34067;39.548;-76.088;2022-09-02T07:19:13;101866.77;;;20.06;50.36
31331;BME280;34067;39.548;-76.088;2022-09-02T07:21:42;101871.57;;;20.85;52.87
31331;BME280;34067;39.548;-76.088;2022-09-02T07:24:11;101874.88;;;20.25;49.25
31331;BME280;34067;39.548;-76.088;2022-09-02T07:26:41;101877.17;;;19.67;48.70
31331;BME280;34067;39.548;-76.088;2022-09-02T07:29:11;101879.15;;;19.68;48.96
31331;BME280;34067;39.548;-76.088;2022-09-02T07:31:41;101884.04;;;20.18;48.39
31331;BME280;34067;39.548;-76.088;2022-09-02T07:34:10;101881.64;;;20.52;50.93
31331;BME280;34067;39.548;-76.088;2022-09-02T07:36:40;101885.64;;;20.67;52.43
31331;BME280;34067;39.548;-76.088;2022-09-02T07:39:09;101894.87;;;19.96;50.67
31331;BME280;34067;39.548;-76.088;2022-09-02T07:41:39;101894.84;;;20.61;49.85
31331;BME280;34067;39.548;-76.088;2022-09-02T07:44:09;101897.31;;;20.98;50.30
31331;BME280;34067;39.548;-76.088;2022-09-02T07:46:37;101902.03;;;22.07;47.57
31331;BME280;34067;39.548;-76.088;2022-09-02T07:49:08;101907.35;;;21.27;46.96
31331;BME280;34067;39.548;-76.088;2022-09-02T07:51:39;101911.13;;;19.99;45.65
31331;BME280;34067;39.548;-76.088;2022-09-02T07:54:09;101911.32;;;20.90;49.61
31331;BME280;34067;39.548;-76.088;2022-09-02T07:56:37;101925.23;;;19.93;46.18
31331;BME280;34067;39.548;-76.088;2022-09-02T07:59:05;101925.17;;;20.16;48.70
31331;BME280;34067;39.548;-76.088;2022-09-02T08:01:33;101929.77;;;19.98;48.56
31331;BME280;34067;39.548;-76.088;2022-09-02T08:04:01;101937.54;;;20.47;50.57
31331;BME280;34067;39.548;-76.088;2022-09-02T08:06:29;101939.32;;;20.33;49.31
31331;BME280;34067;39.548;-76.088;2022-09-02T08:08:57;101941.84;;;20.45;49.80
31331;BME280;34067;39.548;-76.088;2022-09-02T08:11:25;101946.40;;;19.79;50.52
31331;BME280;34067;39.548;-76.088;2022-09-02T08:13:53;101947.28;;;20.06;50.01
31331;BME280;34067;39.548;-76.088;2022-09-02T08:16:21;101948.86;;;19.83;47.80
31331;BME280;34067;39.548;-76.088;2022-09-02T08:18:49;101947.65;;;19.46;46.89
31331;BME280;34067;39.548;-76.088;2022-09-02T08:21:16;101951.46;;;19.94;53.37
31331;BME280;34067;39.548;-76.088;2022-09-02T08:23:44;101957.57;;;19.38;52.56
31331;BME280;34067;39.548;-76.088;2022-09-02T08:26:12;101961.25;;;20.20;49.68
31331;BME280;34067;39.548;-76.088;2022-09-02T08:28:40;101959.58;;;18.69;47.04
31331;BME280;34067;39.548;-76.088;2022-09-02T08:31:08;101966.73;;;19.40;51.15
31331;BME280;34067;39.548;-76.088;2022-09-02T08:33:36;101972.60;;;19.05;51.40
31331;BME280;34067;39.548;-76.088;2022-09-02T08:36:05;101971.88;;;20.03;49.90
31331;BME280;34067;39.548;-76.088;2022-09-02T08:38:34;101975.75;;;19.49;49.52
31331;BME280;34067;39.548;-76.088;2022-09-02T08:41:03;101980.16;;;20.40;47.62
31331;BME280;34067;39.548;-76.088;2022-09-02T08:43:41;101986.11;;;20.17;48.11
31331;BME280;34067;39.548;-76.088;2022-09-02T08:46:12;101988.21;;;19.76;47.61
31331;BME280;34067;39.548;-76.088;2022-09-02T08:48:43;101986.11;;;19.47;45.65
31331;BME280;34067;39.548;-76.088;2022-09-02T08:51:19;101991.42;;;19.93;48.43
31331;BME280;34067;39.548;-76.088;2022-09-02T08:53:53;101989.98;;;20.47;47.17
31331;BME280;34067;39.548;-76.088;2022-09-02T08:56:24;101998.61;;;20.61;46.10
31331;BME280;34067;39.548;-76.088;2022-09-02T08:58:53;102001.98;;;20.07;46.42
31331;BME280;34067;39.548;-76.088;2022-09-02T09:01:26;102005.73;;;20.99;46.36
31331;BME280;34067;39.548;-76.088;2022-09-02T09:04:09;102012.29;;;20.82;46.86
31331;BME280;34067;39.548;-76.088;2022-09-02T09:06:50;102015.08;;;19.87;46.38
31331;BME280;34067;39.548;-76.088;2022-09-02T09:09:25;102023.31;;;20.13;47.20
31331;BME280;34067;39.548;-76.088;2022-09-02T09:12:06;102028.57;;;20.41;47.11
31331;BME280;34067;39.548;-76.088;2022-09-02T09:14:43;102033.25;;;20.34;48.38
31331;BME280;34067;39.548;-76.088;2022-09-02T09:17:21;102041.47;;;20.78;47.37
31331;BME280;34067;39.548;-76.088;2022-09-02T09:19:54;102042.72;;;19.79;48.25
31331;BME280;34067;39.548;-76.088;2022-09-02T09:22:30;102046.23;;;19.02;52.46
31331;BME280;34067;39.548;-76.088;2022-09-02T09:24:58;102045.63;;;19.01;51.45
31331;BME280;34067;39.548;-76.088;2022-09-02T09:27:27;102048.30;;;18.32;50.39
31331;BME280;34067;39.548;-76.088;2022-09-02T09:29:56;102051.00;;;18.09;51.89
31331;BME280;34067;39.548;-76.088;2022-09-02T09:32:30;102051.48;;;18.39;54.36
31331;BME280;34067;39.548;-76.088;2022-09-02T09:35:03;102054.79;;;18.43;53.03
31331;BME280;34067;39.548;-76.088;2022-09-02T09:37:35;102056.90;;;18.00;57.69
31331;BME280;34067;39.548;-76.088;2022-09-02T09:40:35;102062.40;;;18.50;53.36
31331;BME280;34067;39.548;-76.088;2022-09-02T09:43:12;102063.19;;;18.41;53.83
31331;BME280;34067;39.548;-76.088;2022-09-02T09:45:42;102066.31;;;17.88;56.91
31331;BME280;34067;39.548;-76.088;2022-09-02T09:48:17;102067.35;;;17.97;56.75
31331;BME280;34067;39.548;-76.088;2022-09-02T09:50:47;102066.56;;;18.08;56.85
31331;BME280;34067;39.548;-76.088;2022-09-02T09:53:17;102066.75;;;17.95;60.51
31331;BME280;34067;39.548;-76.088;2022-09-02T09:55:52;102071.95;;;17.71;57.76
31331;BME280;34067;39.548;-76.088;2022-09-02T09:58:21;102075.40;;;18.05;54.81
31331;BME280;34067;39.548;-76.088;2022-09-02T10:00:51;102073.35;;;18.21;59.27
31331;BME280;34067;39.548;-76.088;2022-09-02T10:03:22;102079.51;;;17.94;55.16
31331;BME280;34067;39.548;-76.088;2022-09-02T10:05:54;102083.47;;;18.17;57.66
31331;BME280;34067;39.548;-76.088;2022-09-02T10:08:24;102086.26;;;18.05;54.80
31331;BME280;34067;39.548;-76.088;2022-09-02T10:10:57;102094.91;;;17.83;55.43
31331;BME280;34067;39.548;-76.088;2022-09-02T10:13:29;102093.76;;;18.08;54.60
31331;BME280;34067;39.548;-76.088;2022-09-02T10:16:20;102093.80;;;18.87;56.73
31331;BME280;34067;39.548;-76.088;2022-09-02T10:18:54;102099.13;;;17.89;53.91
31331;BME280;34067;39.548;-76.088;2022-09-02T10:21:34;102103.35;;;18.09;54.53
31331;BME280;34067;39.548;-76.088;2022-09-02T10:24:16;102106.86;;;17.40;54.17
31331;BME280;34067;39.548;-76.088;2022-09-02T10:26:55;102110.56;;;18.59;55.59
31331;BME280;34067;39.548;-76.088;2022-09-02T10:29:45;102117.46;;;18.00;55.46
31331;BME280;34067;39.548;-76.088;2022-09-02T10:32:27;102120.19;;;18.39;55.35
31331;BME280;34067;39.548;-76.088;2022-09-02T10:35:07;102124.89;;;18.44;52.49
31331;BME280;34067;39.548;-76.088;2022-09-02T10:37:45;102126.38;;;18.31;57.23
31331;BME280;34067;39.548;-76.088;2022-09-02T10:40:23;102127.40;;;17.86;59.11
31331;BME280;34067;39.548;-76.088;2022-09-02T10:43:03;102129.18;;;18.01;54.82
31331;BME280;34067;39.548;-76.088;2022-09-02T10:45:36;102133.34;;;18.01;56.81
31331;BME280;34067;39.548;-76.088;2022-09-02T10:48:23;102137.33;;;18.73;54.11
31331;BME280;34067;39.548;-76.088;2022-09-02T10:51:00;102148.12;;;18.71;58.91
31331;BME280;34067;39.548;-76.088;2022-09-02T10:53:42;102152.81;;;18.84;56.21
31331;BME280;34067;39.548;-76.088;2022-09-02T10:56:18;102154.33;;;19.00;57.32
31331;BME280;34067;39.548;-76.088;2022-09-02T10:58:52;102158.04;;;18.88;54.73
31331;BME280;34067;39.548;-76.088;2022-09-02T11:01:25;102155.14;;;18.16;56.63
31331;BME280;34067;39.548;-76.088;2022-09-02T11:04:02;102162.70;;;18.22;53.44
31331;BME280;34067;39.548;-76.088;2022-09-02T11:06:37;102171.11;;;18.72;56.18
31331;BME280;34067;39.548;-76.088;2022-09-02T11:09:11;102172.93;;;17.56;55.94
31331;BME280;34067;39.548;-76.088;2022-09-02T11:11:48;102175.73;;;18.43;55.75
31331;BME280;34067;39.548;-76.088;2022-09-02T11:14:23;102180.35;;;18.84;57.04
31331;BME280;34067;39.548;-76.088;2022-09-02T11:16:59;102182.52;;;18.61;58.69
31331;BME280;34067;39.548;-76.088;2022-09-02T11:19:34;102185.24;;;18.84;54.24
31331;BME280;34067;39.548;-76.088;2022-09-02T11:22:18;102189.99;;;18.15;58.75
31331;BME280;34067;39.548;-76.088;2022-09-02T11:24:54;102193.91;;;18.01;55.98
31331;BME280;34067;39.548;-76.088;2022-09-02T11:27:32;102190.68;;;18.64;58.80
31331;BME280;34067;39.548;-76.088;2022-09-02T11:30:08;102191.63;;;18.32;59.54
31331;BME280;34067;39.548;-76.088;2022-09-02T11:32:45;102192.19;;;18.39;56.71
31331;BME280;34067;39.548;-76.088;2022-09-02T11:35:21;102197.70;;;18.39;56.96
31331;BME280;34067;39.548;-76.088;2022-09-02T11:37:53;102199.45;;;19.25;57.51
31331;BME280;34067;39.548;-76.088;2022-09-02T11:40:25;102204.49;;;19.23;60.11
31331;BME280;34067;39.548;-76.088;2022-09-02T11:43:06;102210.14;;;18.82;58.62
31331;BME280;34067;39.548;-76.088;2022-09-02T11:45:57;102210.76;;;18.49;58.03
31331;BME280;34067;39.548;-76.088;2022-09-02T11:49:46;102216.02;;;17.83;57.63
31331;BME280;34067;39.548;-76.088;2022-09-02T11:52:26;102217.28;;;19.17;57.07
31331;BME280;34067;39.548;-76.088;2022-09-02T11:55:06;102219.77;;;19.39;56.36
31331;BME280;34067;39.548;-76.088;2022-09-02T11:57:35;102224.00;;;19.09;55.72
31331;BME280;34067;39.548;-76.088;2022-09-02T12:00:08;102217.69;;;19.40;56.57
31331;BME280;34067;39.548;-76.088;2022-09-02T12:02:42;102223.54;;;19.49;57.43
31331;BME280;34067;39.548;-76.088;2022-09-02T12:05:46;102224.56;;;19.50;60.80
31331;BME280;34067;39.548;-76.088;2022-09-02T12:08:59;102226.96;;;19.32;59.45
31331;BME280;34067;39.548;-76.088;2022-09-02T12:11:46;102233.78;;;19.52;58.22
31331;BME280;34067;39.548;-76.088;2022-09-02T12:15:15;102242.84;;;20.08;60.70
31331;BME280;34067;39.548;-76.088;2022-09-02T12:18:09;102246.75;;;19.38;60.73
31331;BME280;34067;39.548;-76.088;2022-09-02T12:21:09;102245.16;;;20.41;58.25
31331;BME280;34067;39.548;-76.088;2022-09-02T12:24:19;102246.10;;;19.84;58.98
31331;BME280;34067;39.548;-76.088;2022-09-02T12:27:07;102243.66;;;20.00;58.67
31331;BME280;34067;39.548;-76.088;2022-09-02T12:29:36;102240.42;;;21.29;53.99
31331;BME280;34067;39.548;-76.088;2022-09-02T12:32:04;102247.38;;;20.75;58.59
31331;BME280;34067;39.548;-76.088;2022-09-02T12:36:45;102247.85;;;20.60;56.49
31331;BME280;34067;39.548;-76.088;2022-09-02T12:40:29;102251.03;;;21.28;55.94
31331;BME280;34067;39.548;-76.088;2022-09-02T12:43:00;102248.20;;;21.73;53.22
31331;BME280;34067;39.548;-76.088;2022-09-02T12:45:32;102249.29;;;21.02;55.46
31331;BME280;34067;39.548;-76.088;2022-09-02T12:48:07;102246.46;;;21.88;56.37
31331;BME280;34067;39.548;-76.088;2022-09-02T12:50:52;102250.77;;;20.84;58.96
31331;BME280;34067;39.548;-76.088;2022-09-02T12:53:32;102254.19;;;21.18;59.25
31331;BME280;34067;39.548;-76.088;2022-09-02T12:56:04;102258.09;;;20.78;54.64